»·PEaware :: N1927H KSBP-KSDM

N1927H :: KSBP-KSDM

FLIGHT INFORMATION

Flight Status: Arrived
Operator: Privately registered:
United States
More flights under this callsign
Pilot: Wayne R. (17783)
Aircraft: PIPER PA-28R-201 ARROW
(P28R)
More flights by this aircraft type
Origin: KSBP San Luis Co Regl
United States
Destination: KSDM Brown Mun
United States
More flights between these airports :: More routes between these airports
Route:
File this flight plan on PilotEdge
Remarks:
Altitude:
(Current/Filed)
5,500ft
Speed:
(Current/Filed)
135kts
Departed: 31-Jul-20 08:48 PM
Arrived: 31-Jul-20 10:40 PM
Distance/Time
Traveled:
242nm/1:51
Distance/Time
To Go:
Arrived

Flight Plot

Page will automatically refresh every two minutes.


Map Options




Map Legend


Flown Route
Filed Route
Departure Airport
Arrival Airport
Navaid (VOR, NDB)
Fix

Horizontal Profiles

Position Reports

Time Latitude Longitude Heading Altitude Ground
Speed
31-Jul-20 20:37 35.238400 -120.639820 311 214ft 0kts
31-Jul-20 20:38 35.238400 -120.639820 311 214ft 0kts
31-Jul-20 20:39 35.238400 -120.639820 311 214ft 0kts
31-Jul-20 20:40 35.238400 -120.639820 311 214ft 0kts
31-Jul-20 20:41 35.238400 -120.639820 311 214ft 0kts
31-Jul-20 20:42 35.238207 -120.640880 310 214ft 15kts
31-Jul-20 20:43 35.239828 -120.643475 124 214ft 30kts
31-Jul-20 20:44 35.235327 -120.635550 123 214ft 27kts
31-Jul-20 20:45 35.233295 -120.632369 168 214ft 0kts
31-Jul-20 20:46 35.233295 -120.632369 168 214ft 0kts
31-Jul-20 20:47 35.234960 -120.636883 303 215ft 67kts
31-Jul-20 20:48 35.229167 -120.656204 190 873ft 106kts
31-Jul-20 20:49 35.207549 -120.623226 125 1309ft 136kts
31-Jul-20 20:50 35.184755 -120.585670 118 1767ft 138kts
31-Jul-20 20:51 35.170051 -120.548517 113 2172ft 137kts
31-Jul-20 20:52 35.154481 -120.505976 110 2631ft 136kts
31-Jul-20 20:53 35.140968 -120.462801 109 3091ft 136kts
31-Jul-20 20:54 35.127904 -120.419448 109 3552ft 135kts
31-Jul-20 20:55 35.115066 -120.376359 109 4012ft 133kts
31-Jul-20 20:56 35.102583 -120.333905 108 4468ft 131kts
31-Jul-20 20:57 35.091600 -120.291995 107 4911ft 130kts
31-Jul-20 20:58 35.079214 -120.250564 117 5361ft 128kts
31-Jul-20 20:59 35.063383 -120.211958 117 5808ft 126kts
31-Jul-20 21:00 35.047124 -120.171685 117 5946ft 144kts
31-Jul-20 21:01 35.027098 -120.127239 123 5841ft 150kts
31-Jul-20 21:02 35.006852 -120.086861 123 6283ft 131kts
31-Jul-20 21:03 34.988401 -120.049562 123 6727ft 126kts
31-Jul-20 21:04 34.970586 -120.013185 123 7172ft 124kts
31-Jul-20 21:05 34.952857 -119.976773 123 7494ft 132kts
31-Jul-20 21:06 34.935884 -119.937985 114 7491ft 145kts
31-Jul-20 21:07 34.920286 -119.891849 114 7491ft 147kts
31-Jul-20 21:08 34.904612 -119.845505 114 7491ft 147kts
31-Jul-20 21:09 34.888917 -119.799083 114 7491ft 147kts
31-Jul-20 21:10 34.873281 -119.752794 113 7489ft 147kts
31-Jul-20 21:11 34.856238 -119.707478 121 7469ft 146kts
31-Jul-20 21:12 34.836497 -119.663924 121 7453ft 146kts
31-Jul-20 21:13 34.816893 -119.620574 121 7439ft 145kts
31-Jul-20 21:14 34.797541 -119.577599 123 7428ft 144kts
31-Jul-20 21:15 34.776703 -119.536104 124 7421ft 143kts
31-Jul-20 21:16 34.755963 -119.494748 124 7420ft 143kts
31-Jul-20 21:17 34.735091 -119.453097 123 7423ft 144kts
31-Jul-20 21:18 34.714016 -119.411162 123 7427ft 146kts
31-Jul-20 21:20 34.692552 -119.368843 123 7430ft 147kts
31-Jul-20 21:21 34.672253 -119.329094 124 7431ft 148kts
31-Jul-20 21:22 34.650414 -119.286530 124 7434ft 149kts
31-Jul-20 21:23 34.628328 -119.243967 124 7429ft 149kts
31-Jul-20 21:24 34.606437 -119.201765 124 7436ft 148kts
31-Jul-20 21:25 34.584332 -119.159261 124 7436ft 149kts
31-Jul-20 21:26 34.562219 -119.116864 123 7435ft 148kts
31-Jul-20 21:27 34.540132 -119.074540 121 7436ft 148kts
31-Jul-20 21:28 34.520336 -119.030639 119 7435ft 148kts
31-Jul-20 21:29 34.500725 -118.986693 119 7435ft 148kts
31-Jul-20 21:30 34.483612 -118.940703 116 7436ft 150kts
31-Jul-20 21:31 34.466922 -118.894090 116 7436ft 151kts
31-Jul-20 21:32 34.450509 -118.846888 116 7436ft 152kts
31-Jul-20 21:33 34.435817 -118.798653 111 7338ft 157kts
31-Jul-20 21:34 34.422868 -118.747333 111 7042ft 159kts
31-Jul-20 21:35 34.410284 -118.696315 110 6743ft 156kts
31-Jul-20 21:36 34.385702 -118.657526 145 6437ft 141kts
31-Jul-20 21:37 34.354888 -118.629661 157 6133ft 135kts
31-Jul-20 21:38 34.318869 -118.618949 170 5832ft 134kts
31-Jul-20 21:38 34.289120 -118.605888 161 5581ft 138kts
31-Jul-20 21:40 34.249026 -118.584250 159 5480ft 131kts
31-Jul-20 21:41 34.215772 -118.565789 159 5475ft 131kts
31-Jul-20 21:41 34.187989 -118.550429 159 5474ft 131kts
31-Jul-20 21:43 34.149087 -118.531233 172 5474ft 128kts
31-Jul-20 21:43 34.119849 -118.523953 165 5439ft 130kts
31-Jul-20 21:44 34.086165 -118.508852 163 5439ft 128kts
31-Jul-20 21:45 34.053431 -118.492024 159 5440ft 127kts
31-Jul-20 21:46 34.021511 -118.473978 159 5442ft 126kts
31-Jul-20 21:47 33.987642 -118.456568 165 5444ft 135kts
31-Jul-20 21:48 33.952029 -118.441044 163 5445ft 137kts
31-Jul-20 21:49 33.918688 -118.418781 137 5446ft 145kts
31-Jul-20 21:50 33.891011 -118.383478 140 5448ft 145kts
31-Jul-20 21:51 33.862485 -118.349481 144 5448ft 144kts
31-Jul-20 21:52 33.831587 -118.318924 148 5445ft 142kts
31-Jul-20 21:53 33.799856 -118.289511 148 5444ft 144kts
31-Jul-20 21:54 33.767828 -118.259919 148 5443ft 145kts
31-Jul-20 21:55 33.735609 -118.230311 148 5448ft 146kts
31-Jul-20 21:56 33.702123 -118.203125 150 5454ft 146kts
31-Jul-20 21:57 33.668812 -118.174802 150 5456ft 146kts
31-Jul-20 21:58 33.635708 -118.146755 150 5455ft 145kts
31-Jul-20 21:59 33.603113 -118.118443 145 5450ft 145kts
31-Jul-20 22:00 33.572465 -118.087630 144 5439ft 143kts
31-Jul-20 22:01 33.541973 -118.057303 144 5435ft 142kts
31-Jul-20 22:02 33.513064 -118.025067 131 5437ft 144kts
31-Jul-20 22:03 33.486391 -117.989545 138 5435ft 143kts
31-Jul-20 22:04 33.458577 -117.955442 138 5435ft 143kts
31-Jul-20 22:05 33.430682 -117.921236 138 5436ft 143kts
31-Jul-20 22:06 33.402774 -117.887332 141 5439ft 143kts
31-Jul-20 22:07 33.374235 -117.853942 136 5439ft 144kts
31-Jul-20 22:08 33.347749 -117.817876 135 5399ft 146kts
31-Jul-20 22:09 33.322253 -117.783279 135 5256ft 148kts
31-Jul-20 22:10 33.295012 -117.746487 134 5103ft 147kts
31-Jul-20 22:11 33.271307 -117.706072 128 4952ft 148kts
31-Jul-20 22:12 33.247837 -117.665720 128 4799ft 148kts
31-Jul-20 22:13 33.225090 -117.624639 119 4649ft 149kts
31-Jul-20 22:14 33.206808 -117.580290 119 4496ft 150kts
31-Jul-20 22:15 33.188152 -117.535262 119 4343ft 150kts
31-Jul-20 22:16 33.169395 -117.490395 119 4191ft 151kts
31-Jul-20 22:17 33.150378 -117.445452 119 4041ft 152kts
31-Jul-20 22:18 33.128596 -117.402218 126 3889ft 152kts
31-Jul-20 22:19 33.101195 -117.365651 137 3734ft 148kts
31-Jul-20 22:20 33.069800 -117.334322 152 3575ft 148kts
31-Jul-20 22:21 33.033619 -117.309735 152 3416ft 148kts
31-Jul-20 22:22 32.996757 -117.290726 159 3416ft 143kts
31-Jul-20 22:23 32.959865 -117.274434 174 3413ft 141kts
31-Jul-20 22:24 32.920553 -117.268402 174 3416ft 142kts
31-Jul-20 22:25 32.883823 -117.262550 173 3415ft 143kts
31-Jul-20 22:26 32.844952 -117.251231 163 3416ft 145kts
31-Jul-20 22:27 32.808102 -117.230960 155 3417ft 147kts
31-Jul-20 22:28 32.771196 -117.209814 161 3422ft 147kts
31-Jul-20 22:29 32.733042 -117.192423 160 3430ft 147kts
31-Jul-20 22:30 32.694690 -117.175567 160 3439ft 146kts
31-Jul-20 22:31 32.660087 -117.151023 141 3450ft 145kts
31-Jul-20 22:32 32.628172 -117.121585 141 3426ft 144kts
31-Jul-20 22:33 32.596538 -117.091414 138 3234ft 149kts
31-Jul-20 22:34 32.568434 -117.057555 128 2930ft 133kts
31-Jul-20 22:35 32.559155 -117.022898 93 2454ft 91kts
31-Jul-20 22:36 32.557376 -116.991768 95 1741ft 96kts
31-Jul-20 22:37 32.554051 -116.961214 92 1268ft 91kts
31-Jul-20 22:38 32.569907 -116.960235 296 758ft 72kts
31-Jul-20 22:39 32.572461 -116.979076 272 518ft 24kts
31-Jul-20 22:40 32.570545 -116.984694 228 522ft 17kts
31-Jul-20 22:41 32.570242 -116.985623 273 522ft 0kts

Navigation Log

Ident Type
Flight plan parsing failed, navigation log unavailable